Time;durP1;ratioP1;P1;durP2;ratioP2;P2;SDS_P1;SDS_P2;PMS_P1;PMS_P2;Temp;Humidity;BMP_temperature;BMP_pressure;BME280_temperature;BME280_humidity;BME280_pressure;Samples;Min_cycle;Max_cycle;Signal;HPM_P1;HPM_P2
2024/03/12 05:05:23;;;;;;;0.38;0.38;;;7.80;99.90;;;;;;6001511;23;20206;-88
2024/03/12 05:07:52;;;;;;;0.40;0.40;;;7.80;99.90;;;;;;4877722;29;20213;-62
2024/03/12 05:10:20;;;;;;;0.50;0.50;;;7.90;99.90;;;;;;4880081;29;20182;-62
2024/03/12 05:12:47;;;;;;;0.30;0.30;;;7.90;99.90;;;;;;4880069;29;20179;-61
2024/03/12 05:15:12;;;;;;;0.40;0.40;;;7.90;99.90;;;;;;4880846;29;20628;-61
2024/03/12 05:17:42;;;;;;;0.30;0.30;;;7.80;99.90;;;;;;4881265;29;20171;-62
2024/03/12 05:20:15;;;;;;;0.40;0.40;;;7.90;99.90;;;;;;4881339;29;20179;-61
2024/03/12 05:22:41;;;;;;;0.50;0.50;;;7.80;99.90;;;;;;4881522;29;20559;-61
2024/03/12 05:25:19;;;;;;;1.52;1.05;;;7.80;99.90;;;;;;4879979;29;20577;-61
2024/03/12 05:27:45;;;;;;;0.30;0.30;;;7.80;99.90;;;;;;4881205;29;20487;-62
2024/03/12 05:30:14;;;;;;;0.30;0.30;;;7.80;99.90;;;;;;4881310;29;20262;-61
2024/03/12 05:32:45;;;;;;;0.30;0.30;;;7.80;99.90;;;;;;4881125;29;20227;-61
2024/03/12 05:35:21;;;;;;;0.30;0.30;;;7.80;99.90;;;;;;4880317;29;20179;-62
2024/03/12 05:38:07;;;;;;;0.30;0.30;;;7.80;99.90;;;;;;4880435;29;20198;-61
2024/03/12 05:40:42;;;;;;;0.40;0.40;;;7.70;99.90;;;;;;4879718;29;20637;-62
2024/03/12 05:48:37;;;;;;;0.30;0.30;;;7.60;99.90;;;;;;4880369;29;20191;-61
2024/03/12 05:51:03;;;;;;;0.30;0.30;;;7.60;99.90;;;;;;4880346;29;20171;-61
2024/03/12 05:53:29;;;;;;;0.40;0.40;;;7.60;99.90;;;;;;4880069;29;20186;-61
2024/03/12 05:55:55;;;;;;;0.40;0.40;;;7.60;99.90;;;;;;4879581;29;20625;-62
2024/03/12 05:58:21;;;;;;;0.30;0.30;;;7.70;99.90;;;;;;4880324;29;20211;-62
2024/03/12 06:00:47;;;;;;;0.30;0.30;;;7.70;99.90;;;;;;4879820;29;20174;-61
2024/03/12 06:03:14;;;;;;;0.30;0.30;;;7.80;99.90;;;;;;4880084;29;20506;-61
2024/03/12 06:05:41;;;;;;;0.95;0.95;;;7.80;99.90;;;;;;4879821;29;20187;-63
2024/03/12 06:08:06;;;;;;;0.30;0.30;;;7.80;99.90;;;;;;4880093;29;20187;-62
2024/03/12 06:10:32;;;;;;;0.30;0.30;;;7.80;99.90;;;;;;4877370;29;20646;-63
2024/03/12 06:12:58;;;;;;;0.30;0.30;;;7.80;99.90;;;;;;4871872;29;20176;-62
2024/03/12 06:15:23;;;;;;;0.30;0.30;;;7.90;99.90;;;;;;4861183;29;20184;-59
2024/03/12 06:17:49;;;;;;;0.30;0.30;;;7.80;99.90;;;;;;4872907;29;20706;-61
2024/03/12 06:20:15;;;;;;;0.30;0.30;;;7.90;99.90;;;;;;4880114;29;20171;-61
2024/03/12 06:22:43;;;;;;;0.30;0.30;;;7.80;99.90;;;;;;4880639;29;20183;-60
2024/03/12 06:25:12;;;;;;;0.32;0.32;;;7.80;99.90;;;;;;4878812;29;20179;-61
2024/03/12 06:27:38;;;;;;;0.30;0.30;;;7.80;99.90;;;;;;4868937;29;20167;-60
2024/03/12 06:30:06;;;;;;;0.30;0.30;;;7.80;99.90;;;;;;4866405;29;20172;-61
2024/03/12 06:32:32;;;;;;;0.30;0.30;;;7.80;99.90;;;;;;4871795;29;20573;-60
2024/03/12 06:34:58;;;;;;;0.52;0.52;;;7.90;99.90;;;;;;4879501;29;20175;-59
2024/03/12 06:37:27;;;;;;;0.30;0.20;;;7.90;99.90;;;;;;4879723;29;20602;-59
2024/03/12 06:39:53;;;;;;;0.30;0.30;;;8.00;99.90;;;;;;4878520;29;20176;-60
2024/03/12 06:42:25;;;;;;;0.30;0.30;;;8.00;99.90;;;;;;4878765;29;20204;-59
2024/03/12 06:44:52;;;;;;;0.30;0.30;;;8.00;99.90;;;;;;4867648;29;20187;-60
2024/03/12 06:47:19;;;;;;;0.30;0.30;;;8.00;99.90;;;;;;4861173;29;20188;-59
2024/03/12 06:49:45;;;;;;;0.30;0.30;;;8.00;99.90;;;;;;4860976;29;20652;-59
2024/03/12 06:52:17;;;;;;;0.30;0.30;;;8.10;99.90;;;;;;4861127;29;20228;-59
2024/03/12 06:54:48;;;;;;;0.30;0.30;;;8.00;99.90;;;;;;4860528;29;20191;-60
2024/03/12 06:57:17;;;;;;;0.30;0.30;;;8.10;99.90;;;;;;4875196;29;20657;-60
2024/03/12 06:59:47;;;;;;;0.40;0.40;;;8.10;99.90;;;;;;4860612;29;20704;-60
2024/03/12 07:02:13;;;;;;;0.30;0.30;;;8.20;99.90;;;;;;4862173;29;20192;-60
2024/03/12 07:04:48;;;;;;;0.32;0.32;;;8.10;99.90;;;;;;4878899;29;20180;-60
2024/03/12 07:07:21;;;;;;;0.30;0.30;;;8.20;99.90;;;;;;4879113;29;20692;-62
2024/03/12 07:09:48;;;;;;;0.40;0.40;;;8.20;99.90;;;;;;4879279;29;20231;-60
2024/03/12 07:12:18;;;;;;;0.40;0.40;;;8.30;99.90;;;;;;4878216;29;20283;-62
2024/03/12 07:14:45;;;;;;;0.60;0.60;;;8.30;99.90;;;;;;4871675;29;20207;-60
2024/03/12 07:17:14;;;;;;;0.30;0.30;;;8.40;99.90;;;;;;4860589;29;20220;-60
2024/03/12 07:19:40;;;;;;;0.30;0.30;;;8.50;99.90;;;;;;4860677;29;20210;-60
2024/03/12 07:22:08;;;;;;;0.30;0.30;;;8.50;99.90;;;;;;4878988;29;20180;-59
2024/03/12 07:24:35;;;;;;;0.30;0.30;;;8.60;99.90;;;;;;4869533;29;20279;-59
2024/03/12 07:27:03;;;;;;;0.50;0.50;;;8.60;99.90;;;;;;4869245;29;20209;-60
2024/03/12 07:29:34;;;;;;;0.40;0.40;;;8.70;99.90;;;;;;4873909;29;20188;-59
2024/03/12 07:32:04;;;;;;;0.30;0.30;;;8.80;99.90;;;;;;4878308;29;20210;-60
2024/03/12 07:34:31;;;;;;;0.40;0.40;;;8.80;99.90;;;;;;4878630;29;20182;-60
2024/03/12 07:37:00;;;;;;;0.40;0.40;;;8.80;99.90;;;;;;4878869;29;20204;-58
2024/03/12 07:39:36;;;;;;;0.30;0.30;;;8.90;99.90;;;;;;4872937;29;21697;-63
2024/03/12 07:42:09;;;;;;;0.35;0.35;;;9.00;99.90;;;;;;4874777;29;20263;-60
2024/03/12 07:44:38;;;;;;;0.30;0.30;;;9.10;99.90;;;;;;4874186;29;20176;-60
2024/03/12 07:47:03;;;;;;;0.30;0.30;;;9.10;99.90;;;;;;4879088;29;20280;-60
2024/03/12 07:49:36;;;;;;;0.60;0.60;;;9.20;99.90;;;;;;4878233;29;20179;-61
2024/03/12 07:52:02;;;;;;;0.30;0.30;;;9.20;99.90;;;;;;4878850;29;20672;-62
2024/03/12 07:54:29;;;;;;;0.30;0.28;;;9.20;99.90;;;;;;4892120;29;20195;-61
2024/03/12 07:56:54;;;;;;;0.30;0.30;;;9.20;99.90;;;;;;4897555;29;20191;-60
2024/03/12 07:59:22;;;;;;;0.30;0.30;;;9.20;99.90;;;;;;4895897;29;20222;-61
2024/03/12 08:01:57;;;;;;;0.30;0.30;;;9.10;99.90;;;;;;4895305;29;20314;-59
2024/03/12 08:04:25;;;;;;;0.30;0.30;;;9.10;99.90;;;;;;4895876;29;20187;-60
2024/03/12 08:06:50;;;;;;;0.30;0.30;;;9.10;99.90;;;;;;4897035;29;20238;-60
2024/03/12 08:09:18;;;;;;;0.30;0.30;;;9.10;99.90;;;;;;4897294;29;20187;-62
2024/03/12 08:11:47;;;;;;;0.30;0.30;;;9.10;99.90;;;;;;4879370;29;20431;-59
2024/03/12 08:14:13;;;;;;;0.30;0.30;;;9.10;99.90;;;;;;4889955;29;20235;-60
2024/03/12 08:16:40;;;;;;;0.60;0.60;;;9.10;99.90;;;;;;4897124;29;20195;-60
2024/03/12 08:19:05;;;;;;;0.40;0.40;;;9.10;99.90;;;;;;4897382;29;20294;-60
2024/03/12 08:21:32;;;;;;;0.30;0.30;;;9.10;99.90;;;;;;4881113;29;20279;-60
2024/03/12 08:23:58;;;;;;;0.40;0.40;;;9.10;99.90;;;;;;4878506;29;20180;-60
2024/03/12 08:26:28;;;;;;;0.40;0.40;;;9.20;99.90;;;;;;4896158;29;20202;-59
2024/03/12 08:28:55;;;;;;;0.35;0.35;;;9.20;99.90;;;;;;4900611;29;20183;-61
2024/03/12 08:31:22;;;;;;;0.30;0.30;;;9.20;99.90;;;;;;4884098;29;20187;-60
2024/03/12 08:33:48;;;;;;;0.40;0.40;;;9.20;99.90;;;;;;4880350;29;20184;-60
2024/03/12 08:36:14;;;;;;;0.30;0.30;;;9.20;99.90;;;;;;4866711;29;20197;-60
2024/03/12 08:38:40;;;;;;;0.30;0.20;;;9.20;99.90;;;;;;4881250;29;20738;-60
2024/03/12 08:41:09;;;;;;;0.40;0.40;;;9.30;99.90;;;;;;4875195;29;20417;-59
2024/03/12 08:43:37;;;;;;;0.60;0.60;;;9.40;99.90;;;;;;4873801;29;20176;-61
2024/03/12 08:46:05;;;;;;;0.30;0.30;;;9.40;99.90;;;;;;4887452;29;20237;-60
2024/03/12 08:48:32;;;;;;;0.30;0.30;;;9.40;99.90;;;;;;4872085;29;20185;-60
2024/03/12 08:50:58;;;;;;;0.30;0.30;;;9.50;99.90;;;;;;4884243;29;20184;-61
2024/03/12 08:53:23;;;;;;;0.30;0.30;;;9.50;99.90;;;;;;4892828;29;20221;-60
2024/03/12 08:55:49;;;;;;;0.30;0.30;;;9.50;99.90;;;;;;4890728;29;20203;-61
2024/03/12 08:58:15;;;;;;;0.30;0.30;;;9.50;99.90;;;;;;4886264;29;20207;-61
2024/03/12 09:00:41;;;;;;;0.30;0.30;;;9.50;99.90;;;;;;4874577;29;20274;-67
2024/03/12 09:03:07;;;;;;;0.40;0.40;;;9.60;99.90;;;;;;4866754;29;20184;-63
2024/03/12 09:05:34;;;;;;;0.30;0.30;;;9.60;99.90;;;;;;4875803;29;20200;-60
2024/03/12 09:08:03;;;;;;;0.30;0.30;;;9.70;99.90;;;;;;4879812;29;20315;-63
2024/03/12 09:10:29;;;;;;;0.35;0.35;;;9.70;99.90;;;;;;4874438;29;20231;-60
2024/03/12 09:12:56;;;;;;;0.30;0.30;;;9.70;99.90;;;;;;4872033;29;20209;-59
2024/03/12 09:15:22;;;;;;;0.40;0.40;;;9.70;99.90;;;;;;4871562;29;20229;-63
2024/03/12 09:17:48;;;;;;;0.30;0.30;;;9.70;99.90;;;;;;4873532;29;20176;-60
2024/03/12 09:20:14;;;;;;;0.30;0.30;;;9.70;99.90;;;;;;4880786;29;20545;-61
2024/03/12 09:22:44;;;;;;;0.30;0.30;;;9.70;99.90;;;;;;4878477;29;20179;-63
2024/03/12 09:25:10;;;;;;;0.80;0.80;;;9.70;99.90;;;;;;4873205;29;20176;-63
2024/03/12 09:27:36;;;;;;;0.30;0.30;;;9.70;99.90;;;;;;4880284;29;20174;-64
2024/03/12 09:30:03;;;;;;;0.30;0.30;;;9.70;99.90;;;;;;4877763;29;20907;-61
2024/03/12 09:32:29;;;;;;;0.40;0.40;;;9.80;99.90;;;;;;4868320;29;20435;-64
2024/03/12 09:34:55;;;;;;;0.30;0.30;;;9.90;99.90;;;;;;4878197;29;20182;-64
2024/03/12 09:37:20;;;;;;;0.37;0.37;;;10.00;99.90;;;;;;4890184;29;20240;-60
2024/03/12 09:39:46;;;;;;;0.30;0.30;;;10.00;99.90;;;;;;4890320;29;20252;-63
2024/03/12 09:42:16;;;;;;;0.30;0.30;;;10.20;99.90;;;;;;4867126;29;20492;-65
2024/03/12 09:44:43;;;;;;;0.50;0.50;;;10.30;99.90;;;;;;4864899;29;20189;-63
2024/03/12 09:47:09;;;;;;;0.33;0.33;;;10.40;99.90;;;;;;4871716;29;20478;-61
2024/03/12 09:49:35;;;;;;;0.30;0.30;;;10.60;99.90;;;;;;4871261;29;20517;-64
2024/03/12 09:52:05;;;;;;;0.30;0.30;;;10.70;99.90;;;;;;4878474;29;20428;-63
2024/03/12 09:54:32;;;;;;;0.30;0.30;;;10.70;99.90;;;;;;4893973;29;20469;-63
2024/03/12 09:57:00;;;;;;;0.30;0.30;;;10.80;99.90;;;;;;4878123;29;20443;-62
2024/03/12 09:59:26;;;;;;;0.40;0.40;;;10.80;99.90;;;;;;4877411;29;20996;-61
2024/03/12 10:01:52;;;;;;;0.30;0.30;;;10.80;99.90;;;;;;4874455;29;20450;-61
2024/03/12 10:04:18;;;;;;;0.30;0.30;;;10.80;99.90;;;;;;4889056;29;20518;-61
2024/03/12 10:06:44;;;;;;;0.30;0.30;;;10.80;99.90;;;;;;4873692;29;20474;-61
2024/03/12 10:09:15;;;;;;;0.30;0.30;;;10.80;99.90;;;;;;4874556;29;20187;-62
2024/03/12 10:11:48;;;;;;;0.30;0.30;;;10.80;99.90;;;;;;4879060;29;20430;-64
2024/03/12 10:14:17;;;;;;;0.30;0.30;;;10.70;99.90;;;;;;4874275;29;20434;-63
2024/03/12 10:16:43;;;;;;;0.30;0.30;;;10.70;99.90;;;;;;4892967;29;20450;-63
2024/03/12 10:19:17;;;;;;;0.30;0.30;;;10.70;99.90;;;;;;4872458;29;20565;-61
2024/03/12 10:21:44;;;;;;;0.30;0.30;;;10.70;99.90;;;;;;4876624;29;20430;-63
2024/03/12 10:24:21;;;;;;;0.30;0.30;;;10.60;99.90;;;;;;4877129;29;20892;-61
2024/03/12 10:26:48;;;;;;;0.33;0.33;;;10.70;99.90;;;;;;4866891;29;20450;-62
2024/03/12 10:29:19;;;;;;;0.30;0.30;;;10.60;99.90;;;;;;4866670;29;20570;-63
2024/03/12 10:31:48;;;;;;;0.30;0.30;;;10.60;99.90;;;;;;4870256;29;20796;-64
2024/03/12 10:34:19;;;;;;;0.40;0.40;;;10.60;99.90;;;;;;4867246;29;20501;-65
2024/03/12 10:36:48;;;;;;;0.30;0.30;;;10.60;99.90;;;;;;4875168;29;20459;-67
2024/03/12 10:39:25;;;;;;;0.30;0.30;;;10.70;99.90;;;;;;4864344;29;20463;-65
2024/03/12 10:41:59;;;;;;;0.30;0.30;;;10.70;99.90;;;;;;4868556;29;20416;-66
2024/03/12 10:44:29;;;;;;;0.30;0.30;;;10.70;99.90;;;;;;4865615;29;20437;-69
2024/03/12 10:46:58;;;;;;;0.40;0.40;;;10.70;99.90;;;;;;4875973;29;20451;-65
2024/03/12 10:49:25;;;;;;;0.30;0.30;;;10.70;99.90;;;;;;4881985;29;20487;-65
2024/03/12 10:51:53;;;;;;;0.33;0.33;;;10.70;99.90;;;;;;4870576;29;20428;-64
2024/03/12 10:54:22;;;;;;;0.47;0.47;;;10.70;99.90;;;;;;4878924;29;20453;-72
2024/03/12 10:56:50;;;;;;;0.40;0.40;;;10.70;99.90;;;;;;4879260;29;20438;-64
2024/03/12 10:59:16;;;;;;;0.30;0.20;;;10.70;99.90;;;;;;4887858;29;20820;-65
2024/03/12 11:01:43;;;;;;;0.30;0.30;;;10.70;99.90;;;;;;4886536;29;20418;-68
2024/03/12 11:04:09;;;;;;;0.30;0.30;;;10.60;99.90;;;;;;4888773;29;20840;-64
2024/03/12 11:06:39;;;;;;;0.30;0.30;;;10.70;99.90;;;;;;4877594;29;20463;-64
2024/03/12 11:09:11;;;;;;;0.30;0.30;;;10.70;99.90;;;;;;4875654;29;20476;-66
2024/03/12 11:11:38;;;;;;;0.30;0.30;;;10.60;99.90;;;;;;4871363;29;20492;-66
2024/03/12 11:14:05;;;;;;;1.00;1.00;;;10.60;99.90;;;;;;4870868;29;20517;-67
2024/03/12 11:16:32;;;;;;;0.30;0.30;;;10.60;99.90;;;;;;4862671;29;20816;-66
2024/03/12 11:19:18;;;;;;;0.30;0.30;;;10.60;99.90;;;;;;4872454;29;20568;-66
2024/03/12 11:21:47;;;;;;;0.30;0.30;;;10.60;99.90;;;;;;4870687;29;20417;-66
2024/03/12 11:24:13;;;;;;;0.30;0.30;;;10.60;99.90;;;;;;4878678;29;20478;-64
2024/03/12 11:26:41;;;;;;;0.40;0.40;;;10.60;99.90;;;;;;4875299;29;20206;-64
2024/03/12 11:29:11;;;;;;;0.30;0.30;;;10.60;99.90;;;;;;4879416;29;21134;-66
2024/03/12 11:31:39;;;;;;;0.30;0.30;;;10.50;99.90;;;;;;4869536;29;20428;-67
2024/03/12 11:34:05;;;;;;;0.30;0.30;;;10.60;99.90;;;;;;4879097;29;20425;-65
2024/03/12 11:36:31;;;;;;;0.33;0.33;;;10.70;99.90;;;;;;4866781;29;20447;-67
2024/03/12 11:39:29;;;;;;;0.30;0.30;;;10.80;99.90;;;;;;4877368;29;20298;-66
2024/03/12 11:42:00;;;;;;;0.30;0.30;;;10.80;99.90;;;;;;4863918;29;20470;-67
2024/03/12 11:44:44;;;;;;;0.57;0.57;;;10.80;99.90;;;;;;4881654;29;20428;-65
2024/03/12 11:47:33;;;;;;;0.30;0.30;;;10.70;99.90;;;;;;4879655;29;20468;-65
2024/03/12 11:49:59;;;;;;;0.30;0.30;;;10.70;99.90;;;;;;4878899;29;20435;-62
2024/03/12 11:52:27;;;;;;;0.30;0.30;;;10.70;99.90;;;;;;4883632;29;20448;-70
2024/03/12 11:54:53;;;;;;;0.30;0.30;;;10.60;99.90;;;;;;4879843;29;20250;-65
2024/03/12 11:57:24;;;;;;;0.30;0.30;;;10.70;99.90;;;;;;4884082;29;20460;-68
2024/03/12 11:59:56;;;;;;;0.30;0.30;;;10.70;99.90;;;;;;4892808;29;20485;-63
2024/03/12 12:02:23;;;;;;;0.30;0.30;;;10.80;99.90;;;;;;4874712;29;20484;-65
2024/03/12 12:04:53;;;;;;;0.30;0.30;;;10.80;99.90;;;;;;4878352;29;20501;-65
2024/03/12 12:07:19;;;;;;;0.30;0.20;;;10.70;99.90;;;;;;4864080;29;20461;-68
2024/03/12 12:09:47;;;;;;;0.30;0.30;;;10.70;99.90;;;;;;4875157;29;20441;-64
2024/03/12 12:12:14;;;;;;;0.60;0.60;;;10.60;99.90;;;;;;4882648;29;20495;-67
2024/03/12 12:14:45;;;;;;;0.30;0.30;;;10.50;99.90;;;;;;4893728;29;20436;-66
2024/03/12 12:17:11;;;;;;;0.40;0.40;;;10.40;99.90;;;;;;4879499;29;20521;-64
2024/03/12 12:19:39;;;;;;;0.30;0.30;;;10.30;99.90;;;;;;4878056;29;20473;-63
2024/03/12 12:22:07;;;;;;;0.30;0.30;;;10.30;99.90;;;;;;4868665;29;20426;-66
2024/03/12 12:24:36;;;;;;;0.40;0.40;;;10.30;99.90;;;;;;4887450;29;20429;-65
2024/03/12 12:27:02;;;;;;;0.33;0.33;;;10.20;99.90;;;;;;4883469;29;20865;-66
2024/03/12 12:29:29;;;;;;;0.30;0.30;;;10.30;99.90;;;;;;4874516;29;20527;-65
2024/03/12 12:31:55;;;;;;;0.30;0.30;;;10.30;99.90;;;;;;4868176;29;20532;-65
2024/03/12 12:34:22;;;;;;;0.30;0.30;;;10.40;99.90;;;;;;4871286;29;20860;-63
2024/03/12 12:36:50;;;;;;;0.30;0.30;;;10.50;99.90;;;;;;4872019;29;20464;-64
2024/03/12 12:39:16;;;;;;;0.40;0.40;;;10.50;99.90;;;;;;4881303;29;20469;-64
2024/03/12 12:41:45;;;;;;;0.30;0.30;;;10.60;99.90;;;;;;4886403;29;20919;-63
2024/03/12 12:44:15;;;;;;;0.30;0.27;;;10.60;99.90;;;;;;4881651;29;20435;-63
2024/03/12 12:46:44;;;;;;;0.30;0.20;;;10.70;99.90;;;;;;4889386;29;20433;-64
2024/03/12 12:49:13;;;;;;;0.40;0.40;;;10.90;99.90;;;;;;4899282;29;20421;-63
2024/03/12 12:51:40;;;;;;;0.40;0.40;;;11.10;99.90;;;;;;4870645;29;20514;-64
2024/03/12 12:54:06;;;;;;;0.30;0.30;;;11.10;99.90;;;;;;4881440;29;20426;-64
2024/03/12 12:56:40;;;;;;;0.30;0.30;;;11.20;99.90;;;;;;4880742;29;20457;-59
2024/03/12 12:59:12;;;;;;;0.30;0.30;;;11.40;99.90;;;;;;4881379;29;20475;-60
2024/03/12 13:01:39;;;;;;;0.77;0.77;;;11.40;99.90;;;;;;4881526;29;20430;-61
2024/03/12 13:04:21;;;;;;;0.30;0.30;;;11.40;99.90;;;;;;4900392;29;20446;-59
2024/03/12 13:06:48;;;;;;;0.40;0.40;;;11.30;99.90;;;;;;4899389;29;20470;-59
2024/03/12 13:09:27;;;;;;;0.30;0.30;;;11.10;99.90;;;;;;4899901;29;20425;-59
2024/03/12 13:11:53;;;;;;;0.40;0.40;;;11.00;99.90;;;;;;4879860;29;20530;-58
2024/03/12 13:14:20;;;;;;;0.30;0.30;;;11.00;99.90;;;;;;4880990;29;20452;-68
2024/03/12 13:16:45;;;;;;;0.37;0.37;;;10.90;99.90;;;;;;4880155;29;20925;-61
2024/03/12 13:19:11;;;;;;;0.30;0.30;;;10.90;99.90;;;;;;4880864;29;20506;-60
2024/03/12 13:21:37;;;;;;;0.30;0.30;;;10.90;99.90;;;;;;4877947;29;20263;-61
2024/03/12 13:24:03;;;;;;;0.70;0.70;;;10.80;99.90;;;;;;4867072;29;20175;-62
2024/03/12 13:26:31;;;;;;;0.30;0.20;;;10.70;99.90;;;;;;4870786;29;20269;-61
2024/03/12 13:28:56;;;;;;;0.30;0.30;;;10.80;99.90;;;;;;4880508;29;20416;-60
2024/03/12 13:31:23;;;;;;;0.80;0.80;;;10.80;99.90;;;;;;4881864;29;20943;-60
2024/03/12 13:33:50;;;;;;;0.40;0.40;;;10.80;99.90;;;;;;4865585;29;20191;-61
2024/03/12 13:36:19;;;;;;;0.30;0.30;;;10.80;99.90;;;;;;4866902;29;20493;-61
2024/03/12 13:38:45;;;;;;;1.10;1.10;;;10.90;99.90;;;;;;4880355;29;20530;-62
2024/03/12 13:41:11;;;;;;;0.30;0.30;;;10.90;99.90;;;;;;4868049;29;20431;-59
2024/03/12 13:43:37;;;;;;;0.30;0.30;;;10.90;99.90;;;;;;4899777;29;20455;-64
2024/03/12 13:46:07;;;;;;;0.30;0.30;;;11.00;99.90;;;;;;4897577;29;20197;-61
2024/03/12 13:48:37;;;;;;;0.30;0.30;;;11.10;99.90;;;;;;4866431;29;20515;-60
2024/03/12 13:51:04;;;;;;;0.30;0.30;;;11.20;99.90;;;;;;4870521;29;20841;-61
2024/03/12 13:53:31;;;;;;;0.30;0.30;;;11.40;99.90;;;;;;4880243;29;20941;-60
2024/03/12 13:56:00;;;;;;;1.07;1.07;;;11.60;99.90;;;;;;4879578;29;20439;-61
2024/03/12 13:58:26;;;;;;;0.70;0.70;;;11.80;99.90;;;;;;4871675;29;20521;-60
2024/03/12 14:00:56;;;;;;;0.30;0.30;;;12.00;99.90;;;;;;4879196;29;20424;-60
2024/03/12 14:03:22;;;;;;;0.30;0.30;;;12.20;99.90;;;;;;4880520;29;20189;-61
2024/03/12 14:05:48;;;;;;;0.30;0.30;;;12.40;99.90;;;;;;4860895;29;20447;-62
2024/03/12 14:08:14;;;;;;;0.30;0.30;;;12.40;99.90;;;;;;4860788;29;20411;-62
2024/03/12 14:10:41;;;;;;;0.30;0.30;;;12.50;99.90;;;;;;4874399;29;20428;-61
2024/03/12 14:13:07;;;;;;;1.17;0.87;;;12.60;99.90;;;;;;4879620;29;20462;-62
2024/03/12 14:15:34;;;;;;;2.47;0.70;;;12.70;99.90;;;;;;4877915;29;20452;-60
2024/03/12 14:18:00;;;;;;;0.50;0.50;;;12.60;99.90;;;;;;4879755;29;20424;-61
2024/03/12 14:20:28;;;;;;;0.77;0.77;;;12.60;99.90;;;;;;4867184;29;20473;-62
2024/03/12 14:22:55;;;;;;;0.30;0.30;;;12.60;99.90;;;;;;4861469;29;20408;-60
2024/03/12 14:25:22;;;;;;;1.77;1.77;;;12.50;99.90;;;;;;4861362;29;20500;-60
2024/03/12 14:27:48;;;;;;;0.30;0.30;;;12.40;99.90;;;;;;4875281;29;20419;-59
2024/03/12 14:30:14;;;;;;;5.30;1.33;;;12.10;99.90;;;;;;4869561;29;20407;-61
2024/03/12 14:32:40;;;;;;;0.50;0.50;;;11.90;99.90;;;;;;4875679;29;20557;-62
2024/03/12 14:35:06;;;;;;;0.30;0.30;;;11.60;99.90;;;;;;4890839;29;20221;-61
2024/03/12 14:37:32;;;;;;;1.60;1.03;;;11.50;99.90;;;;;;4878156;29;20446;-62
2024/03/12 14:39:59;;;;;;;5.47;0.90;;;11.30;99.90;;;;;;4866738;29;20470;-62
2024/03/12 14:42:26;;;;;;;0.57;0.57;;;11.30;99.90;;;;;;4871560;29;20789;-63
2024/03/12 14:44:52;;;;;;;0.30;0.30;;;11.20;99.90;;;;;;4877514;29;20437;-62
2024/03/12 14:47:19;;;;;;;0.83;0.83;;;11.10;99.90;;;;;;4879204;29;20421;-61
2024/03/12 14:49:46;;;;;;;0.50;0.50;;;11.00;99.90;;;;;;4877027;29;20425;-67
2024/03/12 14:52:12;;;;;;;0.30;0.30;;;10.90;99.90;;;;;;4872734;29;20427;-61
2024/03/12 14:54:37;;;;;;;0.33;0.33;;;10.90;99.90;;;;;;4865497;29;20436;-61
2024/03/12 14:57:04;;;;;;;0.30;0.30;;;10.80;99.90;;;;;;4874295;29;20573;-62
2024/03/12 14:59:30;;;;;;;0.30;0.30;;;10.70;99.90;;;;;;4867791;29;20308;-61
2024/03/12 15:01:55;;;;;;;0.47;0.47;;;10.60;99.90;;;;;;4864260;29;20560;-61
2024/03/12 15:04:21;;;;;;;0.30;0.30;;;10.50;99.90;;;;;;4876088;29;20187;-62
2024/03/12 15:06:47;;;;;;;0.40;0.40;;;10.50;99.90;;;;;;4873294;29;20287;-64
2024/03/12 15:09:14;;;;;;;0.30;0.30;;;10.40;99.90;;;;;;4861262;29;20212;-63
2024/03/12 15:11:41;;;;;;;0.30;0.30;;;10.40;99.90;;;;;;4861306;29;20909;-62
2024/03/12 15:14:09;;;;;;;0.40;0.40;;;10.40;99.90;;;;;;4861436;29;20834;-61
2024/03/12 15:16:39;;;;;;;0.40;0.40;;;10.30;99.90;;;;;;4861117;29;20200;-65
2024/03/12 15:19:05;;;;;;;0.30;0.30;;;10.30;99.90;;;;;;4879116;29;20468;-61
2024/03/12 15:21:31;;;;;;;0.30;0.30;;;10.20;99.90;;;;;;4868097;29;20428;-66
2024/03/12 15:23:57;;;;;;;0.37;0.37;;;10.20;99.90;;;;;;4867172;29;20566;-66
2024/03/12 15:26:23;;;;;;;0.40;0.40;;;10.20;99.90;;;;;;4860566;29;20951;-66
2024/03/12 15:28:48;;;;;;;0.47;0.47;;;10.20;99.90;;;;;;4859852;29;20391;-67
2024/03/12 15:31:17;;;;;;;0.30;0.30;;;10.20;99.90;;;;;;4860818;29;20724;-65
2024/03/12 15:33:44;;;;;;;0.40;0.40;;;10.20;99.90;;;;;;4861041;29;20175;-67
2024/03/12 15:36:10;;;;;;;0.30;0.30;;;10.30;99.90;;;;;;4869034;29;20213;-67
2024/03/12 15:38:36;;;;;;;0.30;0.30;;;10.30;99.90;;;;;;4869057;29;20204;-65
2024/03/12 15:41:02;;;;;;;0.30;0.30;;;10.20;99.90;;;;;;4882220;29;20346;-63
2024/03/12 15:43:29;;;;;;;0.30;0.30;;;10.20;99.90;;;;;;4864756;29;20985;-65
2024/03/12 15:45:55;;;;;;;0.30;0.30;;;10.20;99.90;;;;;;4864555;29;20439;-65
2024/03/12 15:48:23;;;;;;;0.30;0.30;;;10.10;99.90;;;;;;4864630;29;20224;-66
2024/03/12 15:50:49;;;;;;;0.40;0.40;;;10.00;99.90;;;;;;4864784;29;20463;-66
2024/03/12 15:53:15;;;;;;;0.30;0.30;;;10.00;99.90;;;;;;4865216;29;20423;-66
2024/03/12 15:55:41;;;;;;;0.73;0.70;;;10.00;99.90;;;;;;4881453;29;20256;-67
2024/03/12 15:58:07;;;;;;;0.82;0.82;;;9.90;99.90;;;;;;4883115;29;20445;-67
2024/03/12 16:00:34;;;;;;;0.30;0.30;;;9.90;99.90;;;;;;4880026;29;20243;-68
2024/03/12 16:03:00;;;;;;;0.30;0.30;;;9.90;99.90;;;;;;4881312;29;20181;-67
2024/03/12 16:05:26;;;;;;;0.30;0.30;;;9.90;99.90;;;;;;4881970;29;20666;-67
2024/03/12 16:07:51;;;;;;;0.43;0.43;;;9.90;99.90;;;;;;4882916;29;20184;-67
2024/03/12 16:10:20;;;;;;;0.60;0.60;;;9.90;99.90;;;;;;4876656;29;20673;-65
2024/03/12 16:12:46;;;;;;;0.50;0.50;;;9.90;99.90;;;;;;4864716;29;20478;-65
2024/03/12 16:15:12;;;;;;;0.30;0.30;;;9.90;99.90;;;;;;4864233;29;20641;-66
2024/03/12 16:17:39;;;;;;;0.30;0.30;;;9.90;99.90;;;;;;4864479;29;20504;-68
2024/03/12 16:20:14;;;;;;;0.33;0.33;;;9.90;99.90;;;;;;4868882;29;20576;-68
2024/03/12 16:22:41;;;;;;;0.30;0.30;;;9.90;99.90;;;;;;4882434;29;20510;-65
2024/03/12 16:25:07;;;;;;;0.40;0.40;;;10.00;99.90;;;;;;4882319;29;20409;-67
2024/03/12 16:27:34;;;;;;;0.30;0.30;;;10.00;99.90;;;;;;4882069;29;20436;-65
2024/03/12 16:30:00;;;;;;;0.30;0.30;;;10.10;99.90;;;;;;4881557;29;20187;-69
2024/03/12 16:32:25;;;;;;;0.40;0.40;;;10.10;99.90;;;;;;4882578;29;20430;-67
2024/03/12 16:34:51;;;;;;;0.37;0.37;;;10.10;99.90;;;;;;4882082;29;20502;-68
2024/03/12 16:37:18;;;;;;;0.40;0.40;;;10.20;99.90;;;;;;4880738;29;20460;-66
2024/03/12 16:39:44;;;;;;;0.47;0.47;;;10.20;99.90;;;;;;4881017;29;20588;-67
2024/03/12 16:42:10;;;;;;;1.60;1.07;;;10.20;99.90;;;;;;4863712;29;20486;-66
2024/03/12 16:44:35;;;;;;;0.30;0.30;;;10.20;99.90;;;;;;4863350;29;20843;-66
2024/03/12 16:47:04;;;;;;;0.30;0.30;;;10.20;99.90;;;;;;4862197;29;20209;-70
2024/03/12 16:49:35;;;;;;;0.30;0.30;;;10.20;99.90;;;;;;4863554;29;20179;-67
2024/03/12 16:52:01;;;;;;;0.57;0.57;;;10.20;99.90;;;;;;4881831;29;20411;-67
2024/03/12 16:54:27;;;;;;;0.30;0.30;;;10.30;99.90;;;;;;4880448;29;20675;-68
2024/03/12 16:56:53;;;;;;;0.30;0.30;;;10.20;99.90;;;;;;4881819;29;20592;-67
2024/03/12 16:59:19;;;;;;;0.30;0.30;;;10.20;99.90;;;;;;4880870;29;20837;-66
2024/03/12 17:01:46;;;;;;;0.50;0.50;;;10.20;99.90;;;;;;4865951;29;20420;-67
2024/03/12 17:04:13;;;;;;;0.40;0.40;;;10.10;99.90;;;;;;4863058;29;20424;-66
2024/03/12 17:06:41;;;;;;;0.57;0.57;;;10.10;99.90;;;;;;4862766;29;20455;-68
2024/03/12 17:09:09;;;;;;;0.40;0.40;;;10.10;99.90;;;;;;4863008;29;20470;-66
2024/03/12 17:11:36;;;;;;;0.40;0.40;;;10.00;99.90;;;;;;4876345;29;20418;-68
2024/03/12 17:14:02;;;;;;;0.30;0.30;;;10.00;99.90;;;;;;4881451;29;20184;-63
2024/03/12 17:16:31;;;;;;;0.30;0.30;;;10.00;99.90;;;;;;4881094;29;20245;-68
2024/03/12 17:18:59;;;;;;;0.85;0.68;;;10.00;99.90;;;;;;4880423;29;20235;-68
2024/03/12 17:21:28;;;;;;;0.30;0.30;;;9.90;99.90;;;;;;4881538;29;20255;-66
2024/03/12 17:23:54;;;;;;;0.30;0.30;;;9.90;99.90;;;;;;4881486;29;20274;-65
2024/03/12 17:26:21;;;;;;;0.30;0.30;;;9.90;99.90;;;;;;4881163;29;20460;-66
2024/03/12 17:28:48;;;;;;;0.30;0.30;;;9.80;99.90;;;;;;4880945;29;20187;-67
2024/03/12 17:31:16;;;;;;;0.30;0.30;;;9.80;99.90;;;;;;4881047;29;20648;-64
2024/03/12 17:33:43;;;;;;;0.63;0.63;;;9.70;99.90;;;;;;4881175;29;20701;-68
2024/03/12 17:36:17;;;;;;;0.30;0.30;;;9.70;99.90;;;;;;4881069;29;20244;-64
2024/03/12 17:38:45;;;;;;;0.30;0.30;;;9.60;99.90;;;;;;4879323;29;20459;-68
2024/03/12 17:41:12;;;;;;;0.30;0.28;;;9.50;99.90;;;;;;4877099;29;20325;-64
2024/03/12 17:43:39;;;;;;;0.38;0.38;;;9.50;99.90;;;;;;4862702;29;20609;-68
2024/03/12 17:46:12;;;;;;;4.25;1.48;;;9.40;99.90;;;;;;4862116;29;20227;-64
2024/03/12 17:48:43;;;;;;;0.30;0.30;;;9.40;99.90;;;;;;4862643;29;20178;-68
2024/03/12 17:51:10;;;;;;;0.65;0.65;;;9.40;99.90;;;;;;4881007;29;20188;-65
2024/03/12 17:53:39;;;;;;;0.30;0.30;;;9.30;99.90;;;;;;4881194;29;20189;-68
2024/03/12 17:56:10;;;;;;;0.30;0.30;;;9.30;99.90;;;;;;4880294;29;20335;-64
2024/03/12 17:58:41;;;;;;;0.30;0.30;;;9.30;99.90;;;;;;4880120;29;20205;-66
2024/03/12 18:01:10;;;;;;;0.43;0.43;;;9.30;99.90;;;;;;4862144;29;20496;-67
2024/03/12 18:03:37;;;;;;;0.30;0.30;;;9.30;99.90;;;;;;4862220;29;20532;-65